sensor_id;sensor_type;location;lat;lon;timestamp;temperature;humidity
3053;DHT22;1536;51.098;6.414;2023-05-10T00:01:19;15.90;99.90
3053;DHT22;1536;51.098;6.414;2023-05-10T00:03:46;15.90;99.90
3053;DHT22;1536;51.098;6.414;2023-05-10T00:06:13;15.90;99.90
3053;DHT22;1536;51.098;6.414;2023-05-10T00:08:42;15.90;99.90
3053;DHT22;1536;51.098;6.414;2023-05-10T00:11:08;15.90;99.90
3053;DHT22;1536;51.098;6.414;2023-05-10T00:13:35;15.90;99.90
3053;DHT22;1536;51.098;6.414;2023-05-10T00:16:02;15.80;99.90
3053;DHT22;1536;51.098;6.414;2023-05-10T00:18:29;15.80;99.90
3053;DHT22;1536;51.098;6.414;2023-05-10T00:20:55;15.70;99.90
3053;DHT22;1536;51.098;6.414;2023-05-10T00:23:22;15.80;99.90
3053;DHT22;1536;51.098;6.414;2023-05-10T00:25:50;15.70;99.90
3053;DHT22;1536;51.098;6.414;2023-05-10T00:28:16;15.70;99.90
3053;DHT22;1536;51.098;6.414;2023-05-10T00:30:43;15.70;99.90
3053;DHT22;1536;51.098;6.414;2023-05-10T00:33:10;15.60;99.90
3053;DHT22;1536;51.098;6.414;2023-05-10T00:35:37;15.60;99.90
3053;DHT22;1536;51.098;6.414;2023-05-10T00:38:04;15.60;99.90
3053;DHT22;1536;51.098;6.414;2023-05-10T00:40:31;15.60;99.90
3053;DHT22;1536;51.098;6.414;2023-05-10T00:42:59;15.60;99.90
3053;DHT22;1536;51.098;6.414;2023-05-10T00:45:26;15.60;99.90
3053;DHT22;1536;51.098;6.414;2023-05-10T00:47:53;15.60;99.90
3053;DHT22;1536;51.098;6.414;2023-05-10T00:50:21;15.60;99.90
3053;DHT22;1536;51.098;6.414;2023-05-10T00:52:48;15.60;99.90
3053;DHT22;1536;51.098;6.414;2023-05-10T00:55:15;15.60;99.90
3053;DHT22;1536;51.098;6.414;2023-05-10T00:57:42;15.60;99.90
3053;DHT22;1536;51.098;6.414;2023-05-10T01:00:12;15.60;99.90
3053;DHT22;1536;51.098;6.414;2023-05-10T01:02:43;15.60;99.90
3053;DHT22;1536;51.098;6.414;2023-05-10T01:05:10;15.60;99.90
3053;DHT22;1536;51.098;6.414;2023-05-10T01:07:37;15.60;99.90
3053;DHT22;1536;51.098;6.414;2023-05-10T01:10:04;15.60;99.90
3053;DHT22;1536;51.098;6.414;2023-05-10T01:12:31;15.50;99.90
3053;DHT22;1536;51.098;6.414;2023-05-10T01:15:00;15.60;99.90
3053;DHT22;1536;51.098;6.414;2023-05-10T01:17:29;15.60;99.90
3053;DHT22;1536;51.098;6.414;2023-05-10T01:19:57;15.60;99.90
3053;DHT22;1536;51.098;6.414;2023-05-10T01:22:44;15.60;99.90
3053;DHT22;1536;51.098;6.414;2023-05-10T01:25:52;15.60;99.90
3053;DHT22;1536;51.098;6.414;2023-05-10T01:31:33;15.60;99.90
3053;DHT22;1536;51.098;6.414;2023-05-10T01:34:09;15.60;99.90
3053;DHT22;1536;51.098;6.414;2023-05-10T01:36:42;15.60;99.90
3053;DHT22;1536;51.098;6.414;2023-05-10T01:39:15;15.60;99.90
3053;DHT22;1536;51.098;6.414;2023-05-10T01:41:48;15.60;99.90
3053;DHT22;1536;51.098;6.414;2023-05-10T01:44:29;15.60;99.90
3053;DHT22;1536;51.098;6.414;2023-05-10T01:47:04;15.60;99.90
3053;DHT22;1536;51.098;6.414;2023-05-10T01:49:39;15.60;99.90
3053;DHT22;1536;51.098;6.414;2023-05-10T01:52:10;15.60;99.90
3053;DHT22;1536;51.098;6.414;2023-05-10T01:54:40;15.60;99.90
3053;DHT22;1536;51.098;6.414;2023-05-10T01:57:09;15.60;99.90
3053;DHT22;1536;51.098;6.414;2023-05-10T01:59:38;15.60;99.90
3053;DHT22;1536;51.098;6.414;2023-05-10T02:02:07;15.60;99.90
3053;DHT22;1536;51.098;6.414;2023-05-10T02:04:39;15.60;99.90
3053;DHT22;1536;51.098;6.414;2023-05-10T02:07:06;15.60;99.90
3053;DHT22;1536;51.098;6.414;2023-05-10T02:09:34;15.60;99.90
3053;DHT22;1536;51.098;6.414;2023-05-10T02:12:02;15.60;99.90
3053;DHT22;1536;51.098;6.414;2023-05-10T02:14:34;15.70;99.90
3053;DHT22;1536;51.098;6.414;2023-05-10T02:17:02;15.70;99.90
3053;DHT22;1536;51.098;6.414;2023-05-10T02:19:30;15.70;99.90
3053;DHT22;1536;51.098;6.414;2023-05-10T02:22:00;15.70;99.90
3053;DHT22;1536;51.098;6.414;2023-05-10T02:24:28;15.70;99.90
3053;DHT22;1536;51.098;6.414;2023-05-10T02:26:56;15.70;99.90
3053;DHT22;1536;51.098;6.414;2023-05-10T02:29:23;15.70;99.90
3053;DHT22;1536;51.098;6.414;2023-05-10T02:31:53;15.70;99.90
3053;DHT22;1536;51.098;6.414;2023-05-10T02:34:21;15.70;99.90
3053;DHT22;1536;51.098;6.414;2023-05-10T02:36:49;15.70;99.90
3053;DHT22;1536;51.098;6.414;2023-05-10T02:39:19;15.70;99.90
3053;DHT22;1536;51.098;6.414;2023-05-10T02:41:46;15.70;99.90
3053;DHT22;1536;51.098;6.414;2023-05-10T02:44:18;15.80;99.90
3053;DHT22;1536;51.098;6.414;2023-05-10T02:46:45;15.70;99.90
3053;DHT22;1536;51.098;6.414;2023-05-10T02:49:13;15.80;99.90
3053;DHT22;1536;51.098;6.414;2023-05-10T02:51:43;15.80;99.90
3053;DHT22;1536;51.098;6.414;2023-05-10T02:54:13;15.80;99.90
3053;DHT22;1536;51.098;6.414;2023-05-10T02:56:47;15.80;99.90
3053;DHT22;1536;51.098;6.414;2023-05-10T02:59:16;15.90;99.90
3053;DHT22;1536;51.098;6.414;2023-05-10T03:01:43;15.80;99.90
3053;DHT22;1536;51.098;6.414;2023-05-10T03:04:10;15.90;99.90
3053;DHT22;1536;51.098;6.414;2023-05-10T03:06:37;15.90;99.90
3053;DHT22;1536;51.098;6.414;2023-05-10T03:09:04;15.90;99.90
3053;DHT22;1536;51.098;6.414;2023-05-10T03:11:43;15.90;99.90
3053;DHT22;1536;51.098;6.414;2023-05-10T03:14:23;16.00;99.90
3053;DHT22;1536;51.098;6.414;2023-05-10T03:16:57;16.00;99.90
3053;DHT22;1536;51.098;6.414;2023-05-10T03:19:30;15.90;99.90
3053;DHT22;1536;51.098;6.414;2023-05-10T03:22:02;15.90;99.90
3053;DHT22;1536;51.098;6.414;2023-05-10T03:24:30;15.90;99.90
3053;DHT22;1536;51.098;6.414;2023-05-10T03:26:59;15.90;99.90
3053;DHT22;1536;51.098;6.414;2023-05-10T03:29:29;15.90;99.90
3053;DHT22;1536;51.098;6.414;2023-05-10T03:31:57;15.90;99.90
3053;DHT22;1536;51.098;6.414;2023-05-10T03:34:24;15.90;99.90
3053;DHT22;1536;51.098;6.414;2023-05-10T03:36:51;15.90;99.90
3053;DHT22;1536;51.098;6.414;2023-05-10T03:39:18;15.90;99.90
3053;DHT22;1536;51.098;6.414;2023-05-10T03:41:45;15.90;99.90
3053;DHT22;1536;51.098;6.414;2023-05-10T03:44:12;15.90;99.90
3053;DHT22;1536;51.098;6.414;2023-05-10T03:46:40;15.90;99.90
3053;DHT22;1536;51.098;6.414;2023-05-10T03:49:07;15.90;99.90
3053;DHT22;1536;51.098;6.414;2023-05-10T03:51:33;15.90;99.90
3053;DHT22;1536;51.098;6.414;2023-05-10T03:54:00;15.90;99.90
3053;DHT22;1536;51.098;6.414;2023-05-10T03:56:26;15.90;99.90
3053;DHT22;1536;51.098;6.414;2023-05-10T03:58:53;15.90;99.90
3053;DHT22;1536;51.098;6.414;2023-05-10T04:01:20;15.90;99.90
3053;DHT22;1536;51.098;6.414;2023-05-10T04:03:48;15.90;99.90
3053;DHT22;1536;51.098;6.414;2023-05-10T04:06:14;15.90;99.90
3053;DHT22;1536;51.098;6.414;2023-05-10T04:08:41;15.80;99.90
3053;DHT22;1536;51.098;6.414;2023-05-10T04:11:09;15.80;99.90
3053;DHT22;1536;51.098;6.414;2023-05-10T04:13:37;15.80;99.90
3053;DHT22;1536;51.098;6.414;2023-05-10T04:16:04;15.70;99.90
3053;DHT22;1536;51.098;6.414;2023-05-10T04:18:31;15.80;99.90
3053;DHT22;1536;51.098;6.414;2023-05-10T04:20:59;15.70;99.90
3053;DHT22;1536;51.098;6.414;2023-05-10T04:23:26;15.70;99.90
3053;DHT22;1536;51.098;6.414;2023-05-10T04:25:59;15.60;99.90
3053;DHT22;1536;51.098;6.414;2023-05-10T04:28:26;15.70;99.90
3053;DHT22;1536;51.098;6.414;2023-05-10T04:30:52;15.60;99.90
3053;DHT22;1536;51.098;6.414;2023-05-10T04:33:19;15.60;99.90
3053;DHT22;1536;51.098;6.414;2023-05-10T04:35:46;15.60;99.90
3053;DHT22;1536;51.098;6.414;2023-05-10T04:38:14;15.60;99.90
3053;DHT22;1536;51.098;6.414;2023-05-10T04:40:40;15.60;99.90
3053;DHT22;1536;51.098;6.414;2023-05-10T04:43:07;15.60;99.90
3053;DHT22;1536;51.098;6.414;2023-05-10T04:45:34;15.60;99.90
3053;DHT22;1536;51.098;6.414;2023-05-10T04:48:00;15.60;99.90
3053;DHT22;1536;51.098;6.414;2023-05-10T04:50:27;15.60;99.90
3053;DHT22;1536;51.098;6.414;2023-05-10T04:52:54;15.60;99.90
3053;DHT22;1536;51.098;6.414;2023-05-10T04:55:22;15.70;99.90
3053;DHT22;1536;51.098;6.414;2023-05-10T04:57:48;15.70;99.90
3053;DHT22;1536;51.098;6.414;2023-05-10T05:00:16;15.70;99.90
3053;DHT22;1536;51.098;6.414;2023-05-10T05:02:43;15.70;99.90
3053;DHT22;1536;51.098;6.414;2023-05-10T05:05:10;15.70;99.90
3053;DHT22;1536;51.098;6.414;2023-05-10T05:07:37;15.80;99.90
3053;DHT22;1536;51.098;6.414;2023-05-10T05:10:06;15.80;99.90
3053;DHT22;1536;51.098;6.414;2023-05-10T05:12:34;15.80;99.90
3053;DHT22;1536;51.098;6.414;2023-05-10T05:15:01;15.80;99.90
3053;DHT22;1536;51.098;6.414;2023-05-10T05:17:30;15.80;99.90
3053;DHT22;1536;51.098;6.414;2023-05-10T05:19:56;15.80;99.90
3053;DHT22;1536;51.098;6.414;2023-05-10T05:22:23;15.80;99.90
3053;DHT22;1536;51.098;6.414;2023-05-10T05:24:52;15.80;99.90
3053;DHT22;1536;51.098;6.414;2023-05-10T05:27:19;15.80;99.90
3053;DHT22;1536;51.098;6.414;2023-05-10T05:29:49;15.80;99.90
3053;DHT22;1536;51.098;6.414;2023-05-10T05:32:15;15.80;99.90
3053;DHT22;1536;51.098;6.414;2023-05-10T05:34:44;15.80;99.90
3053;DHT22;1536;51.098;6.414;2023-05-10T05:37:13;15.80;99.90
3053;DHT22;1536;51.098;6.414;2023-05-10T05:39:40;15.80;99.90
3053;DHT22;1536;51.098;6.414;2023-05-10T05:42:08;15.80;99.90
3053;DHT22;1536;51.098;6.414;2023-05-10T05:44:34;15.70;99.90
3053;DHT22;1536;51.098;6.414;2023-05-10T05:47:02;15.70;99.90
3053;DHT22;1536;51.098;6.414;2023-05-10T05:49:29;15.70;99.90
3053;DHT22;1536;51.098;6.414;2023-05-10T05:51:58;15.70;99.90
3053;DHT22;1536;51.098;6.414;2023-05-10T05:54:25;15.70;99.90
3053;DHT22;1536;51.098;6.414;2023-05-10T05:56:54;15.70;99.90
3053;DHT22;1536;51.098;6.414;2023-05-10T05:59:20;15.70;99.90
3053;DHT22;1536;51.098;6.414;2023-05-10T06:01:47;15.70;99.90
3053;DHT22;1536;51.098;6.414;2023-05-10T06:04:15;15.70;99.90
3053;DHT22;1536;51.098;6.414;2023-05-10T06:06:42;15.70;99.90
3053;DHT22;1536;51.098;6.414;2023-05-10T06:09:09;15.70;99.90
3053;DHT22;1536;51.098;6.414;2023-05-10T06:11:36;15.70;99.90
3053;DHT22;1536;51.098;6.414;2023-05-10T06:14:03;15.80;99.90
3053;DHT22;1536;51.098;6.414;2023-05-10T06:16:32;15.70;99.90
3053;DHT22;1536;51.098;6.414;2023-05-10T06:18:59;15.80;99.90
3053;DHT22;1536;51.098;6.414;2023-05-10T06:21:27;15.80;99.90
3053;DHT22;1536;51.098;6.414;2023-05-10T06:23:53;15.90;99.90
3053;DHT22;1536;51.098;6.414;2023-05-10T06:26:20;15.90;99.90
3053;DHT22;1536;51.098;6.414;2023-05-10T06:28:47;15.90;99.90
3053;DHT22;1536;51.098;6.414;2023-05-10T06:31:13;15.90;99.90
3053;DHT22;1536;51.098;6.414;2023-05-10T06:33:41;16.00;99.90
3053;DHT22;1536;51.098;6.414;2023-05-10T06:36:08;16.00;99.90
3053;DHT22;1536;51.098;6.414;2023-05-10T06:38:36;16.00;99.90
3053;DHT22;1536;51.098;6.414;2023-05-10T06:41:02;16.00;99.90
3053;DHT22;1536;51.098;6.414;2023-05-10T06:43:29;16.10;99.90
3053;DHT22;1536;51.098;6.414;2023-05-10T06:45:56;16.00;99.90
3053;DHT22;1536;51.098;6.414;2023-05-10T06:48:22;16.00;99.90
3053;DHT22;1536;51.098;6.414;2023-05-10T06:50:49;16.00;99.90
3053;DHT22;1536;51.098;6.414;2023-05-10T06:53:16;16.10;99.90
3053;DHT22;1536;51.098;6.414;2023-05-10T06:55:44;16.10;99.90
3053;DHT22;1536;51.098;6.414;2023-05-10T06:58:11;16.00;99.90
3053;DHT22;1536;51.098;6.414;2023-05-10T07:00:37;16.00;99.90
3053;DHT22;1536;51.098;6.414;2023-05-10T07:03:05;16.00;99.90
3053;DHT22;1536;51.098;6.414;2023-05-10T07:05:32;16.00;99.90
3053;DHT22;1536;51.098;6.414;2023-05-10T07:07:59;16.00;99.90
3053;DHT22;1536;51.098;6.414;2023-05-10T07:10:26;16.00;99.90
3053;DHT22;1536;51.098;6.414;2023-05-10T07:12:54;16.10;99.90
3053;DHT22;1536;51.098;6.414;2023-05-10T07:15:21;16.10;99.90
3053;DHT22;1536;51.098;6.414;2023-05-10T07:17:48;16.10;99.90
3053;DHT22;1536;51.098;6.414;2023-05-10T07:20:14;16.20;99.90
3053;DHT22;1536;51.098;6.414;2023-05-10T07:22:41;16.20;99.90
3053;DHT22;1536;51.098;6.414;2023-05-10T07:25:08;16.30;99.90
3053;DHT22;1536;51.098;6.414;2023-05-10T07:27:35;16.40;99.90
3053;DHT22;1536;51.098;6.414;2023-05-10T07:30:03;16.40;99.90
3053;DHT22;1536;51.098;6.414;2023-05-10T07:32:30;16.50;99.90
3053;DHT22;1536;51.098;6.414;2023-05-10T07:34:57;16.60;99.90
3053;DHT22;1536;51.098;6.414;2023-05-10T07:37:24;16.60;99.90
3053;DHT22;1536;51.098;6.414;2023-05-10T07:39:50;16.70;99.90
3053;DHT22;1536;51.098;6.414;2023-05-10T07:42:17;16.90;99.90
3053;DHT22;1536;51.098;6.414;2023-05-10T07:44:43;16.90;99.90
3053;DHT22;1536;51.098;6.414;2023-05-10T07:47:12;17.00;99.90
3053;DHT22;1536;51.098;6.414;2023-05-10T07:49:38;17.00;99.90
3053;DHT22;1536;51.098;6.414;2023-05-10T07:52:05;17.10;99.90
3053;DHT22;1536;51.098;6.414;2023-05-10T07:54:32;17.10;99.90
3053;DHT22;1536;51.098;6.414;2023-05-10T07:57:00;17.10;99.90
3053;DHT22;1536;51.098;6.414;2023-05-10T07:59:26;17.10;99.90
3053;DHT22;1536;51.098;6.414;2023-05-10T08:01:53;17.20;99.90
3053;DHT22;1536;51.098;6.414;2023-05-10T08:04:21;17.20;99.90
3053;DHT22;1536;51.098;6.414;2023-05-10T08:06:48;17.20;99.90
3053;DHT22;1536;51.098;6.414;2023-05-10T08:09:14;17.10;99.90
3053;DHT22;1536;51.098;6.414;2023-05-10T08:11:43;17.10;99.90
3053;DHT22;1536;51.098;6.414;2023-05-10T08:14:09;17.10;99.90
3053;DHT22;1536;51.098;6.414;2023-05-10T08:16:36;17.10;99.90
3053;DHT22;1536;51.098;6.414;2023-05-10T08:19:03;17.10;99.90
3053;DHT22;1536;51.098;6.414;2023-05-10T08:21:31;17.10;99.90
3053;DHT22;1536;51.098;6.414;2023-05-10T08:23:57;17.10;99.90
3053;DHT22;1536;51.098;6.414;2023-05-10T08:26:24;17.10;99.90
3053;DHT22;1536;51.098;6.414;2023-05-10T08:28:51;17.10;99.90
3053;DHT22;1536;51.098;6.414;2023-05-10T08:31:18;17.00;99.90
3053;DHT22;1536;51.098;6.414;2023-05-10T08:33:45;17.00;99.90
3053;DHT22;1536;51.098;6.414;2023-05-10T08:36:11;17.00;99.90
3053;DHT22;1536;51.098;6.414;2023-05-10T08:38:40;17.00;99.90
3053;DHT22;1536;51.098;6.414;2023-05-10T08:41:07;16.90;99.90
3053;DHT22;1536;51.098;6.414;2023-05-10T08:43:36;16.90;99.90
3053;DHT22;1536;51.098;6.414;2023-05-10T08:46:05;16.90;99.90
3053;DHT22;1536;51.098;6.414;2023-05-10T08:48:34;16.90;99.90
3053;DHT22;1536;51.098;6.414;2023-05-10T08:51:03;16.90;99.90
3053;DHT22;1536;51.098;6.414;2023-05-10T08:53:31;17.00;99.90
3053;DHT22;1536;51.098;6.414;2023-05-10T08:56:01;17.00;99.90
3053;DHT22;1536;51.098;6.414;2023-05-10T08:58:28;17.10;99.90
3053;DHT22;1536;51.098;6.414;2023-05-10T09:00:55;17.10;99.90
3053;DHT22;1536;51.098;6.414;2023-05-10T09:03:22;17.10;99.90
3053;DHT22;1536;51.098;6.414;2023-05-10T09:05:49;17.10;99.90
3053;DHT22;1536;51.098;6.414;2023-05-10T09:08:16;17.20;99.90
3053;DHT22;1536;51.098;6.414;2023-05-10T09:10:44;17.30;99.90
3053;DHT22;1536;51.098;6.414;2023-05-10T09:13:14;17.40;99.90
3053;DHT22;1536;51.098;6.414;2023-05-10T09:15:41;17.40;99.90
3053;DHT22;1536;51.098;6.414;2023-05-10T09:18:08;17.50;99.90
3053;DHT22;1536;51.098;6.414;2023-05-10T09:20:35;17.60;99.90
3053;DHT22;1536;51.098;6.414;2023-05-10T09:23:01;17.60;99.90
3053;DHT22;1536;51.098;6.414;2023-05-10T09:25:28;17.60;99.90
3053;DHT22;1536;51.098;6.414;2023-05-10T09:27:55;17.60;99.90
3053;DHT22;1536;51.098;6.414;2023-05-10T09:30:28;17.70;99.90
3053;DHT22;1536;51.098;6.414;2023-05-10T09:32:55;17.70;99.90
3053;DHT22;1536;51.098;6.414;2023-05-10T09:35:23;17.70;99.90
3053;DHT22;1536;51.098;6.414;2023-05-10T09:37:52;17.70;99.90
3053;DHT22;1536;51.098;6.414;2023-05-10T09:40:21;17.80;99.90
3053;DHT22;1536;51.098;6.414;2023-05-10T09:42:52;17.80;99.90
3053;DHT22;1536;51.098;6.414;2023-05-10T09:45:19;17.80;99.90
3053;DHT22;1536;51.098;6.414;2023-05-10T09:47:47;17.80;99.90
3053;DHT22;1536;51.098;6.414;2023-05-10T09:50:14;17.80;99.90
3053;DHT22;1536;51.098;6.414;2023-05-10T09:52:47;17.90;99.90
3053;DHT22;1536;51.098;6.414;2023-05-10T09:55:14;17.90;99.90
3053;DHT22;1536;51.098;6.414;2023-05-10T09:57:41;18.00;99.90
3053;DHT22;1536;51.098;6.414;2023-05-10T10:00:09;18.00;99.90
3053;DHT22;1536;51.098;6.414;2023-05-10T10:02:36;18.00;99.90
3053;DHT22;1536;51.098;6.414;2023-05-10T10:05:06;18.00;99.90
3053;DHT22;1536;51.098;6.414;2023-05-10T10:07:34;18.10;99.90
3053;DHT22;1536;51.098;6.414;2023-05-10T10:10:01;18.10;99.90
3053;DHT22;1536;51.098;6.414;2023-05-10T10:12:29;18.10;99.90
3053;DHT22;1536;51.098;6.414;2023-05-10T10:14:56;18.20;99.90
3053;DHT22;1536;51.098;6.414;2023-05-10T10:17:24;18.20;99.90
3053;DHT22;1536;51.098;6.414;2023-05-10T10:19:54;18.20;99.90
3053;DHT22;1536;51.098;6.414;2023-05-10T10:22:23;18.20;99.90
3053;DHT22;1536;51.098;6.414;2023-05-10T10:24:50;18.20;99.90
3053;DHT22;1536;51.098;6.414;2023-05-10T10:27:21;18.20;99.90
3053;DHT22;1536;51.098;6.414;2023-05-10T10:30:00;18.20;99.90
3053;DHT22;1536;51.098;6.414;2023-05-10T10:32:38;18.20;99.90
3053;DHT22;1536;51.098;6.414;2023-05-10T10:35:08;18.10;99.90
3053;DHT22;1536;51.098;6.414;2023-05-10T10:37:45;18.00;99.90
3053;DHT22;1536;51.098;6.414;2023-05-10T10:40:27;18.00;99.90
3053;DHT22;1536;51.098;6.414;2023-05-10T10:42:54;18.00;99.90
3053;DHT22;1536;51.098;6.414;2023-05-10T10:45:22;18.00;99.90
3053;DHT22;1536;51.098;6.414;2023-05-10T10:50:43;18.00;99.90
3053;DHT22;1536;51.098;6.414;2023-05-10T10:53:12;18.10;99.90
3053;DHT22;1536;51.098;6.414;2023-05-10T10:55:46;18.10;99.90
3053;DHT22;1536;51.098;6.414;2023-05-10T10:58:28;18.10;99.90
3053;DHT22;1536;51.098;6.414;2023-05-10T11:01:13;18.10;99.90
3053;DHT22;1536;51.098;6.414;2023-05-10T11:03:40;18.00;99.90
3053;DHT22;1536;51.098;6.414;2023-05-10T11:06:07;18.00;99.90
3053;DHT22;1536;51.098;6.414;2023-05-10T11:08:42;18.00;99.90
3053;DHT22;1536;51.098;6.414;2023-05-10T11:11:09;17.90;99.90
3053;DHT22;1536;51.098;6.414;2023-05-10T11:13:43;17.90;99.90
3053;DHT22;1536;51.098;6.414;2023-05-10T11:16:17;17.80;99.90
3053;DHT22;1536;51.098;6.414;2023-05-10T11:18:59;17.80;99.90
3053;DHT22;1536;51.098;6.414;2023-05-10T11:21:27;17.90;99.90
3053;DHT22;1536;51.098;6.414;2023-05-10T11:23:55;17.80;99.90
3053;DHT22;1536;51.098;6.414;2023-05-10T11:26:23;17.80;99.90
3053;DHT22;1536;51.098;6.414;2023-05-10T11:28:52;17.80;99.90
3053;DHT22;1536;51.098;6.414;2023-05-10T11:31:21;17.70;99.90
3053;DHT22;1536;51.098;6.414;2023-05-10T11:33:49;17.80;99.90
3053;DHT22;1536;51.098;6.414;2023-05-10T11:36:18;17.80;99.90
3053;DHT22;1536;51.098;6.414;2023-05-10T11:38:45;17.80;99.90
3053;DHT22;1536;51.098;6.414;2023-05-10T11:41:13;17.90;99.90
3053;DHT22;1536;51.098;6.414;2023-05-10T11:43:40;17.90;99.90
3053;DHT22;1536;51.098;6.414;2023-05-10T11:46:07;18.00;99.90
3053;DHT22;1536;51.098;6.414;2023-05-10T11:48:36;18.10;99.90
3053;DHT22;1536;51.098;6.414;2023-05-10T11:51:03;18.20;99.90
3053;DHT22;1536;51.098;6.414;2023-05-10T11:53:31;18.20;99.90
3053;DHT22;1536;51.098;6.414;2023-05-10T11:56:03;18.20;99.90
3053;DHT22;1536;51.098;6.414;2023-05-10T11:58:34;18.20;99.90
3053;DHT22;1536;51.098;6.414;2023-05-10T12:01:02;18.20;99.90
3053;DHT22;1536;51.098;6.414;2023-05-10T12:03:29;18.20;99.90
3053;DHT22;1536;51.098;6.414;2023-05-10T12:05:56;18.30;99.90
3053;DHT22;1536;51.098;6.414;2023-05-10T12:08:25;18.30;99.90
3053;DHT22;1536;51.098;6.414;2023-05-10T12:10:53;18.30;99.90
3053;DHT22;1536;51.098;6.414;2023-05-10T12:13:20;18.30;99.90
3053;DHT22;1536;51.098;6.414;2023-05-10T12:15:48;18.30;99.90
3053;DHT22;1536;51.098;6.414;2023-05-10T12:18:23;18.20;99.90
3053;DHT22;1536;51.098;6.414;2023-05-10T12:20:51;18.10;99.90
3053;DHT22;1536;51.098;6.414;2023-05-10T12:23:19;18.00;99.90
3053;DHT22;1536;51.098;6.414;2023-05-10T12:25:46;18.00;99.90
3053;DHT22;1536;51.098;6.414;2023-05-10T12:28:13;18.00;99.90
3053;DHT22;1536;51.098;6.414;2023-05-10T12:30:40;18.00;99.90
3053;DHT22;1536;51.098;6.414;2023-05-10T12:33:12;18.00;99.90
3053;DHT22;1536;51.098;6.414;2023-05-10T12:35:47;18.00;99.90
3053;DHT22;1536;51.098;6.414;2023-05-10T12:38:25;17.90;99.90
3053;DHT22;1536;51.098;6.414;2023-05-10T12:40:54;17.90;99.90
3053;DHT22;1536;51.098;6.414;2023-05-10T12:43:20;18.00;99.90
3053;DHT22;1536;51.098;6.414;2023-05-10T12:45:47;18.00;99.90
3053;DHT22;1536;51.098;6.414;2023-05-10T12:48:15;18.00;99.90
3053;DHT22;1536;51.098;6.414;2023-05-10T12:50:42;18.10;99.90
3053;DHT22;1536;51.098;6.414;2023-05-10T12:53:08;18.20;99.90
3053;DHT22;1536;51.098;6.414;2023-05-10T12:55:35;18.30;99.90
3053;DHT22;1536;51.098;6.414;2023-05-10T12:58:02;18.30;99.90
3053;DHT22;1536;51.098;6.414;2023-05-10T13:00:29;18.40;99.90
3053;DHT22;1536;51.098;6.414;2023-05-10T13:02:56;18.40;99.90
3053;DHT22;1536;51.098;6.414;2023-05-10T13:05:24;18.40;99.90
3053;DHT22;1536;51.098;6.414;2023-05-10T13:07:51;18.40;99.90
3053;DHT22;1536;51.098;6.414;2023-05-10T13:10:17;18.40;99.90
3053;DHT22;1536;51.098;6.414;2023-05-10T13:12:44;18.50;99.90
3053;DHT22;1536;51.098;6.414;2023-05-10T13:15:11;18.60;99.90
3053;DHT22;1536;51.098;6.414;2023-05-10T13:17:38;18.70;99.90
3053;DHT22;1536;51.098;6.414;2023-05-10T13:20:06;18.80;99.90
3053;DHT22;1536;51.098;6.414;2023-05-10T13:22:34;18.90;99.90
3053;DHT22;1536;51.098;6.414;2023-05-10T13:25:01;19.10;99.90
3053;DHT22;1536;51.098;6.414;2023-05-10T13:27:28;19.20;99.90
3053;DHT22;1536;51.098;6.414;2023-05-10T13:29:55;19.30;99.90
3053;DHT22;1536;51.098;6.414;2023-05-10T13:32:21;19.40;99.90
3053;DHT22;1536;51.098;6.414;2023-05-10T13:34:49;19.40;99.90
3053;DHT22;1536;51.098;6.414;2023-05-10T13:37:16;19.40;99.90
3053;DHT22;1536;51.098;6.414;2023-05-10T13:39:44;19.40;99.90
3053;DHT22;1536;51.098;6.414;2023-05-10T13:42:10;19.40;99.90
3053;DHT22;1536;51.098;6.414;2023-05-10T13:44:37;19.40;99.90
3053;DHT22;1536;51.098;6.414;2023-05-10T13:47:04;19.40;99.90
3053;DHT22;1536;51.098;6.414;2023-05-10T13:49:31;19.40;99.90
3053;DHT22;1536;51.098;6.414;2023-05-10T13:51:57;19.40;99.90
3053;DHT22;1536;51.098;6.414;2023-05-10T13:54:24;19.40;99.90
3053;DHT22;1536;51.098;6.414;2023-05-10T13:56:56;19.50;99.90
3053;DHT22;1536;51.098;6.414;2023-05-10T13:59:23;19.50;99.90
3053;DHT22;1536;51.098;6.414;2023-05-10T14:01:49;19.60;99.90
3053;DHT22;1536;51.098;6.414;2023-05-10T14:04:16;19.60;99.90
3053;DHT22;1536;51.098;6.414;2023-05-10T14:06:43;19.70;99.90
3053;DHT22;1536;51.098;6.414;2023-05-10T14:09:09;19.80;99.90
3053;DHT22;1536;51.098;6.414;2023-05-10T14:11:36;19.90;99.90
3053;DHT22;1536;51.098;6.414;2023-05-10T14:14:08;19.90;99.90
3053;DHT22;1536;51.098;6.414;2023-05-10T14:16:41;19.90;99.90
3053;DHT22;1536;51.098;6.414;2023-05-10T14:19:09;20.00;99.90
3053;DHT22;1536;51.098;6.414;2023-05-10T14:21:36;20.00;99.90
3053;DHT22;1536;51.098;6.414;2023-05-10T14:24:05;20.20;99.90
3053;DHT22;1536;51.098;6.414;2023-05-10T14:26:34;20.40;99.90
3053;DHT22;1536;51.098;6.414;2023-05-10T14:29:01;20.60;99.90
3053;DHT22;1536;51.098;6.414;2023-05-10T14:31:29;21.00;99.90
3053;DHT22;1536;51.098;6.414;2023-05-10T14:33:56;21.00;99.90
3053;DHT22;1536;51.098;6.414;2023-05-10T14:36:24;21.00;99.90
3053;DHT22;1536;51.098;6.414;2023-05-10T14:38:52;21.00;99.90
3053;DHT22;1536;51.098;6.414;2023-05-10T14:41:19;21.00;99.90
3053;DHT22;1536;51.098;6.414;2023-05-10T14:43:45;20.90;99.90
3053;DHT22;1536;51.098;6.414;2023-05-10T14:46:12;21.10;99.90
3053;DHT22;1536;51.098;6.414;2023-05-10T14:48:42;21.40;99.90
3053;DHT22;1536;51.098;6.414;2023-05-10T14:51:09;21.50;99.90
3053;DHT22;1536;51.098;6.414;2023-05-10T14:53:38;21.40;99.90
3053;DHT22;1536;51.098;6.414;2023-05-10T14:56:05;21.30;99.90
3053;DHT22;1536;51.098;6.414;2023-05-10T14:58:33;21.20;99.90
3053;DHT22;1536;51.098;6.414;2023-05-10T15:01:01;21.10;99.90
3053;DHT22;1536;51.098;6.414;2023-05-10T15:03:28;21.00;99.90
3053;DHT22;1536;51.098;6.414;2023-05-10T15:05:57;20.90;99.90
3053;DHT22;1536;51.098;6.414;2023-05-10T15:08:25;20.80;99.90
3053;DHT22;1536;51.098;6.414;2023-05-10T15:10:52;20.70;99.90
3053;DHT22;1536;51.098;6.414;2023-05-10T15:13:20;20.60;99.90
3053;DHT22;1536;51.098;6.414;2023-05-10T15:15:51;20.50;99.90
3053;DHT22;1536;51.098;6.414;2023-05-10T15:18:20;20.40;99.90
3053;DHT22;1536;51.098;6.414;2023-05-10T15:20:48;20.30;99.90
3053;DHT22;1536;51.098;6.414;2023-05-10T15:23:19;20.20;99.90
3053;DHT22;1536;51.098;6.414;2023-05-10T15:25:45;20.20;99.90
3053;DHT22;1536;51.098;6.414;2023-05-10T15:28:12;20.10;99.90
3053;DHT22;1536;51.098;6.414;2023-05-10T15:30:39;20.10;99.90
3053;DHT22;1536;51.098;6.414;2023-05-10T15:33:06;20.10;99.90
3053;DHT22;1536;51.098;6.414;2023-05-10T15:35:33;20.10;99.90
3053;DHT22;1536;51.098;6.414;2023-05-10T15:38:03;20.00;99.90
3053;DHT22;1536;51.098;6.414;2023-05-10T15:40:34;20.00;99.90
3053;DHT22;1536;51.098;6.414;2023-05-10T15:43:00;19.90;99.90
3053;DHT22;1536;51.098;6.414;2023-05-10T15:45:28;19.90;99.90
3053;DHT22;1536;51.098;6.414;2023-05-10T15:47:56;19.80;99.90
3053;DHT22;1536;51.098;6.414;2023-05-10T15:50:26;19.80;99.90
3053;DHT22;1536;51.098;6.414;2023-05-10T15:52:54;19.80;99.90
3053;DHT22;1536;51.098;6.414;2023-05-10T15:55:25;19.70;99.90
3053;DHT22;1536;51.098;6.414;2023-05-10T15:57:53;19.70;99.90
3053;DHT22;1536;51.098;6.414;2023-05-10T16:00:21;19.70;99.90
3053;DHT22;1536;51.098;6.414;2023-05-10T16:02:50;19.70;99.90
3053;DHT22;1536;51.098;6.414;2023-05-10T16:05:19;19.70;99.90
3053;DHT22;1536;51.098;6.414;2023-05-10T16:07:47;19.60;99.90
3053;DHT22;1536;51.098;6.414;2023-05-10T16:10:14;19.60;99.90
3053;DHT22;1536;51.098;6.414;2023-05-10T16:12:40;19.60;99.90
3053;DHT22;1536;51.098;6.414;2023-05-10T16:15:09;19.60;99.90